首页
METAR-TAF:

METAR-TAF

机场 :

Mackall Army Airfield

Camp Mackall, 北卡罗来纳州, 美国

纬度: 35-02N, 经度: 079-30W, 海拔: 115米

当前天气观测

该预报发布于12分钟前的15:56 UTC
风速6节,风向西南
温度 31°C
湿度 59%
气压 1018 hPa
能見度: 16.1公里
天空无云

METAR: KHFF 161556Z AUTO 22006KT 10SM CLR 31/22 A3006 RMK AO2 SLP191 T03070218 $

时间: 12:08 (16:08 UTC)


TAF: 丢失

超过4000个机场的气象观测和天气预报(METAR&TAF报告)。

可查询的气象台以黄色和红色小点在地图上表示。

将鼠标移到小点上方,可查看气象台名称。

然后点击查看天气观测和预报。

如需切换地图:点击带黑十字的绿色按钮放大地图;点击带横线的绿色按钮缩小地图;或者点击绿色箭头查看邻近地区的地图。


METAR-TAF: